Time;durP1;ratioP1;P1;durP2;ratioP2;P2;SDS_P1;SDS_P2;PMS_P1;PMS_P2;Temp;Humidity;BMP_temperature;BMP_pressure;BME280_temperature;BME280_humidity;BME280_pressure;Samples;Min_cycle;Max_cycle;Signal;HPM_P1;HPM_P2
2024/02/27 00:02:04;;;;;;;;;;;6.90;99.90;;;6.81;73.90;100120.66;4934188;29;19963;-84
2024/02/27 00:04:32;;;;;;;;;;;6.90;99.90;;;6.90;74.27;100129.25;4941001;29;20057;-84
2024/02/27 00:06:59;;;;;;;;;;;6.90;99.90;;;6.93;73.96;100135.00;4958102;29;19926;-84
2024/02/27 00:09:27;;;;;;;;;;;6.90;99.90;;;6.93;73.60;100127.06;4928250;29;20025;-84
2024/02/27 00:11:55;;;;;;;;;;;6.90;99.90;;;6.86;73.49;100126.19;4946417;29;20356;-84
2024/02/27 00:14:23;;;;;;;;;;;6.90;99.90;;;6.79;73.97;100135.13;4932319;29;19927;-84
2024/02/27 00:16:51;;;;;;;;;;;6.80;99.90;;;6.82;73.96;100134.72;4913059;29;19977;-84
2024/02/27 00:19:19;;;;;;;;;;;6.80;99.90;;;6.86;74.07;100138.63;4962435;29;19926;-84
2024/02/27 00:21:46;;;;;;;;;;;6.80;99.90;;;6.87;73.96;100132.28;4944690;29;19933;-84
2024/02/27 00:24:13;;;;;;;;;;;6.80;99.90;;;6.91;74.04;100144.97;4962433;28;20395;-84
2024/02/27 00:26:41;;;;;;;;;;;6.90;99.90;;;6.86;73.83;100136.78;4962310;29;19926;-84
2024/02/27 00:29:09;;;;;;;;;;;6.80;99.90;;;6.88;73.78;100145.38;4943483;29;20009;-84
2024/02/27 00:31:36;;;;;;;;;;;6.90;99.90;;;6.88;73.76;100141.88;4943369;29;19974;-84
2024/02/27 00:34:05;;;;;;;;;;;6.90;99.90;;;6.93;73.96;100142.94;4961287;29;20021;-84
2024/02/27 00:36:32;;;;;;;;;;;6.90;99.90;;;6.92;73.50;100146.59;4944237;29;20350;-84
2024/02/27 00:38:59;;;;;;;;;;;6.90;99.90;;;6.89;73.51;100146.19;4960693;29;20042;-84
2024/02/27 00:41:27;;;;;;;;;;;6.90;99.90;;;6.94;73.62;100152.53;4955273;28;20390;-84
2024/02/27 00:43:56;;;;;;;;;;;6.90;99.90;;;7.01;73.41;100157.06;4962116;29;19930;-84
2024/02/27 00:46:23;;;;;;;;;;;7.00;99.90;;;7.04;73.23;100156.66;4962345;28;20387;-84
2024/02/27 00:48:50;;;;;;;;;;;7.00;99.90;;;6.92;72.95;100162.50;4896953;29;19926;-84
2024/02/27 00:51:19;;;;;;;;;;;6.90;99.90;;;6.81;73.04;100154.28;4951292;28;19965;-84
2024/02/27 00:53:46;;;;;;;;;;;6.80;99.90;;;6.86;73.42;100162.47;4924281;29;19927;-84
2024/02/27 00:56:14;;;;;;;;;;;6.90;99.90;;;6.83;73.25;100160.19;4951088;28;19958;-84
2024/02/27 00:58:43;;;;;;;;;;;6.80;99.90;;;6.85;73.44;100158.19;4943881;29;19953;-84
2024/02/27 01:01:11;;;;;;;;;;;6.90;99.90;;;6.83;73.23;100163.69;4934136;29;20013;-84
2024/02/27 01:03:39;;;;;;;;;;;6.80;99.90;;;6.88;73.51;100163.09;4923529;29;19933;-84
2024/02/27 01:06:07;;;;;;;;;;;6.80;99.90;;;6.90;73.18;100172.50;4940130;29;19931;-84
2024/02/27 01:08:36;;;;;;;;;;;6.90;99.90;;;6.92;73.04;100169.63;4922970;29;19931;-84
2024/02/27 01:11:03;;;;;;;;;;;6.90;99.90;;;6.97;73.02;100169.88;4947456;29;19926;-84
2024/02/27 01:13:32;;;;;;;;;;;6.90;99.90;;;7.00;73.11;100166.03;4941702;29;19954;-84
2024/02/27 01:16:00;;;;;;;;;;;6.90;99.90;;;6.92;72.75;100157.19;4925547;29;19934;-84
2024/02/27 01:18:27;;;;;;;;;;;6.90;99.90;;;6.92;72.79;100175.75;4941873;29;20289;-84
2024/02/27 01:20:54;;;;;;;;;;;6.80;99.90;;;6.88;72.92;100168.38;4957157;29;19937;-84
2024/02/27 01:23:21;;;;;;;;;;;6.90;99.90;;;6.91;73.15;100171.47;4943281;29;19927;-84
2024/02/27 01:25:52;;;;;;;;;;;6.90;99.90;;;6.98;73.23;100176.84;4944238;29;20458;-84
2024/02/27 01:28:19;;;;;;;;;;;6.90;99.90;;;6.99;72.74;100173.16;4959007;29;19950;-84
2024/02/27 01:30:47;;;;;;;;;;;7.00;99.90;;;6.97;72.77;100183.13;4942027;29;19933;-84
2024/02/27 01:33:14;;;;;;;;;;;7.00;99.90;;;6.98;72.62;100182.13;4943768;29;19950;-84
2024/02/27 01:35:40;;;;;;;;;;;6.90;99.90;;;6.94;72.61;100183.53;4959967;28;20307;-84
2024/02/27 01:38:08;;;;;;;;;;;6.90;99.90;;;6.94;72.54;100186.19;4942717;29;20013;-84
2024/02/27 01:40:35;;;;;;;;;;;6.90;99.90;;;6.92;72.78;100194.31;4951245;28;19958;-84
2024/02/27 01:43:04;;;;;;;;;;;6.80;99.90;;;6.93;72.68;100203.94;4908386;29;19927;-84
2024/02/27 01:45:31;;;;;;;;;;;6.90;99.90;;;6.90;72.68;100206.94;4941271;29;19950;-84
2024/02/27 01:48:00;;;;;;;;;;;6.90;99.90;;;6.90;72.73;100200.84;4907189;29;20320;-84
2024/02/27 01:50:27;;;;;;;;;;;6.80;99.90;;;6.93;72.83;100201.28;4940907;29;19970;-84
2024/02/27 01:52:54;;;;;;;;;;;6.80;99.90;;;6.92;72.77;100201.44;4924681;29;19931;-84
2024/02/27 01:55:22;;;;;;;;;;;6.90;99.90;;;6.95;72.81;100204.53;4923434;29;19927;-84
2024/02/27 01:57:49;;;;;;;;;;;6.90;99.90;;;6.93;72.73;100211.06;4924056;29;20407;-84
2024/02/27 02:00:20;;;;;;;;;;;6.90;99.90;;;7.01;73.19;100215.38;4923340;29;20400;-84
2024/02/27 02:02:47;;;;;;;;;;;6.90;99.90;;;7.03;72.50;100206.22;4940154;29;19927;-84
2024/02/27 02:05:14;;;;;;;;;;;6.90;99.90;;;7.04;72.64;100210.50;4940957;29;19937;-84
2024/02/27 02:07:42;;;;;;;;;;;7.00;99.90;;;7.05;72.62;100220.09;4943652;29;19978;-84
2024/02/27 02:10:12;;;;;;;;;;;6.90;99.90;;;6.92;72.37;100215.53;4942627;29;20363;-83
2024/02/27 02:12:39;;;;;;;;;;;6.90;99.90;;;6.95;72.75;100214.31;4927596;29;19936;-84
2024/02/27 02:15:07;;;;;;;;;;;6.90;99.90;;;6.93;72.69;100208.41;4944802;29;19931;-84
2024/02/27 02:17:36;;;;;;;;;;;6.80;99.90;;;6.90;72.70;100211.44;4945469;29;19931;-84
2024/02/27 02:20:05;;;;;;;;;;;6.90;99.90;;;6.89;72.17;100209.81;4944622;29;19926;-84
2024/02/27 02:22:34;;;;;;;;;;;6.80;99.90;;;6.90;72.84;100222.03;4944190;29;20017;-84
2024/02/27 02:25:02;;;;;;;;;;;6.80;99.90;;;6.85;72.81;100227.91;4944949;29;20026;-84
2024/02/27 02:27:33;;;;;;;;;;;6.80;99.90;;;6.94;73.11;100223.31;4927465;29;19927;-84
2024/02/27 02:30:01;;;;;;;;;;;6.90;99.90;;;6.98;73.11;100224.56;4927608;29;19926;-84
2024/02/27 02:32:28;;;;;;;;;;;6.90;99.90;;;6.94;72.77;100225.94;4912152;29;19926;-84
2024/02/27 02:34:56;;;;;;;;;;;6.90;99.90;;;6.90;72.54;100227.34;4911947;29;19941;-84
2024/02/27 02:37:26;;;;;;;;;;;6.80;99.90;;;6.83;72.79;100234.41;4927587;29;19966;-84
2024/02/27 02:39:57;;;;;;;;;;;6.80;99.90;;;6.85;73.05;100229.75;4942990;29;19926;-84
2024/02/27 02:42:25;;;;;;;;;;;6.70;99.90;;;6.87;73.04;100240.97;4944855;29;19927;-84
2024/02/27 02:44:52;;;;;;;;;;;6.80;99.90;;;6.83;72.84;100242.38;4927702;29;19931;-84
2024/02/27 02:47:19;;;;;;;;;;;6.70;99.90;;;6.84;73.06;100250.16;4944622;29;20401;-84
2024/02/27 02:49:48;;;;;;;;;;;6.80;99.90;;;6.88;72.89;100247.91;4927479;29;19927;-84
2024/02/27 02:52:15;;;;;;;;;;;6.80;99.90;;;6.87;73.10;100248.91;4911205;29;20446;-84
2024/02/27 02:54:42;;;;;;;;;;;6.80;99.90;;;6.92;72.73;100254.47;4944755;29;20293;-84
2024/02/27 02:57:11;;;;;;;;;;;6.80;99.90;;;6.83;72.41;100255.63;4927375;29;19926;-84
2024/02/27 02:59:38;;;;;;;;;;;6.80;99.90;;;6.87;72.95;100259.53;4944600;29;19959;-84
2024/02/27 03:02:05;;;;;;;;;;;6.80;99.90;;;6.92;72.84;100252.63;4927704;29;19931;-84
2024/02/27 03:04:34;;;;;;;;;;;6.80;99.90;;;6.84;72.51;100249.31;4944184;29;19927;-84
2024/02/27 03:07:01;;;;;;;;;;;6.70;99.90;;;6.86;72.88;100253.41;4926742;29;20439;-84
2024/02/27 03:09:29;;;;;;;;;;;6.70;99.90;;;6.85;72.64;100253.63;4927007;29;19927;-84
2024/02/27 03:11:57;;;;;;;;;;;6.70;99.90;;;6.82;72.36;100252.16;4944164;29;19935;-84
2024/02/27 03:14:26;;;;;;;;;;;6.70;99.90;;;6.78;72.51;100250.88;4926542;29;20352;-84
2024/02/27 03:16:53;;;;;;;;;;;6.70;99.90;;;6.77;72.87;100259.03;4941201;29;20392;-83
2024/02/27 03:19:21;;;;;;;;;;;6.70;99.90;;;6.75;72.60;100250.47;4942670;29;19933;-84
2024/02/27 03:21:48;;;;;;;;;;;6.70;99.90;;;6.72;73.03;100249.81;4926015;29;19965;-84
2024/02/27 03:24:15;;;;;;;;;;;6.60;99.90;;;6.74;73.00;100254.97;4927031;29;19997;-84
2024/02/27 03:26:42;;;;;;;;;;;6.60;99.90;;;6.67;72.96;100259.38;4927192;29;19986;-84
2024/02/27 03:29:09;;;;;;;;;;;6.60;99.90;;;6.65;73.07;100259.56;4942478;29;19927;-84
2024/02/27 03:31:38;;;;;;;;;;;6.60;99.90;;;6.70;73.26;100262.47;4927266;29;19959;-84
2024/02/27 03:34:06;;;;;;;;;;;6.60;99.90;;;6.70;73.14;100264.28;4926281;29;19994;-84
2024/02/27 03:36:33;;;;;;;;;;;6.60;99.90;;;6.77;73.56;100259.84;4926747;29;20293;-84
2024/02/27 03:39:00;;;;;;;;;;;6.70;99.90;;;6.77;72.80;100264.34;4943879;29;19977;-84
2024/02/27 03:41:28;;;;;;;;;;;6.70;99.90;;;6.77;73.05;100257.22;4944036;29;19951;-84
2024/02/27 03:43:55;;;;;;;;;;;6.70;99.90;;;6.79;73.13;100263.16;4925383;29;20057;-84
2024/02/27 03:46:23;;;;;;;;;;;6.70;99.90;;;6.84;73.08;100263.41;4942310;29;19959;-84
2024/02/27 03:48:51;;;;;;;;;;;6.70;99.90;;;6.71;72.46;100266.75;4962194;28;19978;-84
2024/02/27 03:51:19;;;;;;;;;;;6.60;99.90;;;6.73;72.95;100263.91;4945427;29;19950;-84
2024/02/27 03:53:46;;;;;;;;;;;6.60;99.90;;;6.75;72.90;100261.06;4944463;29;20411;-84
2024/02/27 03:56:13;;;;;;;;;;;6.60;99.90;;;6.78;73.04;100271.28;4897421;29;19926;-84
2024/02/27 03:58:40;;;;;;;;;;;6.70;99.90;;;6.79;73.05;100267.63;4937426;29;19927;-84
2024/02/27 04:01:08;;;;;;;;;;;6.70;99.90;;;6.78;72.79;100269.44;4937743;29;19977;-84
2024/02/27 04:03:35;;;;;;;;;;;6.70;99.90;;;6.76;72.70;100273.31;4945555;29;19927;-84
2024/02/27 04:06:04;;;;;;;;;;;6.70;99.90;;;6.71;73.01;100268.59;4944850;29;20346;-84
2024/02/27 04:08:31;;;;;;;;;;;6.60;99.90;;;6.64;72.75;100276.47;4950830;28;19951;-84
2024/02/27 04:10:59;;;;;;;;;;;6.50;99.90;;;6.63;72.98;100281.94;4926423;29;19974;-84
2024/02/27 04:13:26;;;;;;;;;;;6.50;99.90;;;6.61;73.09;100281.34;4944235;29;20108;-83
2024/02/27 04:15:53;;;;;;;;;;;6.50;99.90;;;6.64;73.56;100284.44;4894004;29;19927;-84
2024/02/27 04:18:21;;;;;;;;;;;6.50;99.90;;;6.65;73.21;100290.56;4925796;29;19926;-84
2024/02/27 04:20:48;;;;;;;;;;;6.50;99.90;;;6.58;72.78;100297.59;4943310;29;19969;-84
2024/02/27 04:23:16;;;;;;;;;;;6.50;99.90;;;6.47;73.52;100300.75;4926008;29;19978;-84
2024/02/27 04:25:44;;;;;;;;;;;6.40;99.90;;;6.44;73.63;100308.09;4942429;29;20388;-84
2024/02/27 04:28:11;;;;;;;;;;;6.40;99.90;;;6.40;73.36;100312.13;4924709;29;20355;-84
2024/02/27 04:30:40;;;;;;;;;;;6.30;99.90;;;6.44;73.66;100307.25;4942123;29;19931;-84
2024/02/27 04:33:07;;;;;;;;;;;6.40;99.90;;;6.41;73.49;100302.34;4924125;29;20038;-84
2024/02/27 04:35:34;;;;;;;;;;;6.30;99.90;;;6.47;73.75;100296.28;4923389;29;20042;-84
2024/02/27 04:38:01;;;;;;;;;;;6.40;99.90;;;6.45;73.78;100306.25;4947038;28;20013;-84
2024/02/27 04:40:30;;;;;;;;;;;6.40;99.90;;;6.44;73.65;100304.59;4961612;28;19927;-84
2024/02/27 04:42:58;;;;;;;;;;;6.40;99.90;;;6.43;73.41;100308.25;4962837;28;19926;-84
2024/02/27 04:45:25;;;;;;;;;;;6.40;99.90;;;6.37;73.54;100307.19;4960663;28;19926;-84
2024/02/27 04:47:52;;;;;;;;;;;6.30;99.90;;;6.38;74.05;100322.06;4938639;29;19927;-84
2024/02/27 04:50:20;;;;;;;;;;;6.30;99.90;;;6.41;73.70;100318.22;4956538;29;19979;-84
2024/02/27 04:52:47;;;;;;;;;;;6.30;99.90;;;6.42;73.62;100312.72;4971216;29;19969;-84
2024/02/27 04:55:17;;;;;;;;;;;6.40;99.90;;;6.39;73.61;100313.13;4953950;29;19933;-84
2024/02/27 04:57:45;;;;;;;;;;;6.30;99.90;;;6.39;73.96;100317.56;4942451;28;20356;-84
2024/02/27 05:00:14;;;;;;;;;;;6.30;99.90;;;6.37;73.77;100317.78;4893900;29;19927;-84
2024/02/27 05:02:41;;;;;;;;;;;6.30;99.90;;;6.39;73.66;100323.72;4925480;29;19931;-84
2024/02/27 05:05:09;;;;;;;;;;;6.30;99.90;;;6.38;73.80;100323.88;4942427;29;19927;-84
2024/02/27 05:07:36;;;;;;;;;;;6.30;99.90;;;6.34;73.76;100333.22;4949272;28;19933;-84
2024/02/27 05:10:04;;;;;;;;;;;6.30;99.90;;;6.34;74.10;100327.91;4943721;29;19930;-84
2024/02/27 05:12:31;;;;;;;;;;;6.30;99.90;;;6.37;74.08;100332.84;4961365;28;19927;-84
2024/02/27 05:15:01;;;;;;;;;;;6.30;99.90;;;6.42;73.94;100333.09;4958931;29;19927;-84
2024/02/27 05:17:28;;;;;;;;;;;6.40;99.90;;;6.49;73.91;100330.53;4943026;29;19926;-84
2024/02/27 05:19:57;;;;;;;;;;;6.40;99.90;;;6.49;73.59;100335.81;4927707;29;19933;-84
2024/02/27 05:22:24;;;;;;;;;;;6.40;99.90;;;6.38;73.70;100345.06;4960254;28;20400;-84
2024/02/27 05:24:51;;;;;;;;;;;6.30;99.90;;;6.38;73.70;100345.91;4944064;29;19927;-84
2024/02/27 05:27:20;;;;;;;;;;;6.30;99.90;;;6.40;73.85;100351.84;4944294;29;19930;-84
2024/02/27 05:29:47;;;;;;;;;;;6.30;99.90;;;6.30;73.98;100345.22;4944510;29;19930;-84
2024/02/27 05:32:16;;;;;;;;;;;6.20;99.90;;;6.30;73.85;100355.81;4943775;29;19926;-84
2024/02/27 05:34:44;;;;;;;;;;;6.30;99.90;;;6.34;74.14;100349.91;4911553;29;19926;-84
2024/02/27 05:37:11;;;;;;;;;;;6.30;99.90;;;6.34;73.77;100354.41;4920455;29;20384;-84
2024/02/27 05:39:39;;;;;;;;;;;6.30;99.90;;;6.31;74.06;100360.09;4920301;29;19931;-84
2024/02/27 05:42:06;;;;;;;;;;;6.20;99.90;;;6.36;73.83;100363.00;4920511;29;19927;-84
2024/02/27 05:44:33;;;;;;;;;;;6.30;99.90;;;6.31;73.81;100370.69;4918196;29;19931;-84
2024/02/27 05:47:00;;;;;;;;;;;6.20;99.90;;;6.37;74.02;100370.75;4886370;29;19927;-83
2024/02/27 05:49:29;;;;;;;;;;;6.30;99.90;;;6.36;74.02;100373.59;4914726;29;19931;-84
2024/02/27 05:51:56;;;;;;;;;;;6.30;99.90;;;6.36;73.53;100366.47;4920200;29;20552;-84
2024/02/27 05:54:24;;;;;;;;;;;6.30;99.90;;;6.41;73.94;100373.84;4919479;29;19927;-84
2024/02/27 05:56:51;;;;;;;;;;;6.30;99.90;;;6.43;73.67;100377.94;4919486;29;20019;-84
2024/02/27 05:59:18;;;;;;;;;;;6.30;99.90;;;6.50;73.93;100374.56;4919876;29;19974;-84
2024/02/27 06:01:47;;;;;;;;;;;6.70;99.90;;;6.52;73.21;100368.06;4894622;29;19973;-84
2024/02/27 06:04:15;;;;;;;;;;;6.40;99.90;;;6.44;73.09;100378.75;4908055;29;20035;-84
2024/02/27 06:06:44;;;;;;;;;;;6.30;99.90;;;6.42;73.35;100375.50;4903490;29;19970;-84
2024/02/27 06:09:12;;;;;;;;;;;6.30;99.90;;;6.40;73.35;100375.69;4937563;29;20008;-84
2024/02/27 06:11:39;;;;;;;;;;;6.30;99.90;;;6.42;73.69;100378.97;4951588;29;19963;-84
2024/02/27 06:14:06;;;;;;;;;;;6.40;99.90;;;6.51;73.68;100386.81;4924449;29;19934;-84
2024/02/27 06:16:34;;;;;;;;;;;6.40;99.90;;;6.50;73.16;100393.94;4907995;29;19978;-84
2024/02/27 06:19:01;;;;;;;;;;;6.40;99.90;;;6.39;73.16;100402.34;4957195;29;19993;-84
2024/02/27 06:24:14;;;;;;;;;;;6.30;99.90;;;6.37;73.58;100405.19;4959618;28;19926;-84
2024/02/27 06:26:42;;;;;;;;;;;6.30;99.90;;;6.32;73.45;100412.03;4943745;29;19997;-83
2024/02/27 06:29:09;;;;;;;;;;;6.20;99.90;;;6.30;73.66;100416.72;4959658;29;19926;-83
2024/02/27 06:31:36;;;;;;;;;;;6.20;99.90;;;6.30;73.89;100416.72;4961539;29;19930;-82
2024/02/27 06:34:05;;;;;;;;;;;6.20;99.90;;;6.34;73.83;100424.09;4960805;28;19926;-81
2024/02/27 06:36:32;;;;;;;;;;;6.20;99.90;;;6.36;73.91;100424.72;4941599;29;19927;-81
2024/02/27 06:39:00;;;;;;;;;;;6.20;99.90;;;6.37;73.58;100428.19;4955010;29;19926;-82
2024/02/27 06:41:29;;;;;;;;;;;6.30;99.90;;;6.39;73.52;100424.38;4953901;29;19930;-82
2024/02/27 06:43:56;;;;;;;;;;;6.30;99.90;;;6.37;73.25;100417.59;4949800;29;19974;-81
2024/02/27 06:46:23;;;;;;;;;;;6.30;99.90;;;6.36;73.21;100429.22;4959496;28;20017;-81
2024/02/27 06:48:52;;;;;;;;;;;6.30;99.90;;;6.36;73.54;100424.72;4941836;29;19926;-81
2024/02/27 06:51:20;;;;;;;;;;;6.30;99.90;;;6.35;73.65;100431.03;4937853;29;19950;-81
2024/02/27 06:53:47;;;;;;;;;;;6.30;99.90;;;6.31;73.20;100436.91;4932738;29;19994;-81
2024/02/27 06:56:14;;;;;;;;;;;6.20;99.90;;;6.29;73.38;100445.00;4947330;29;19926;-80
2024/02/27 06:58:43;;;;;;;;;;;6.20;99.90;;;6.25;73.54;100445.59;4964605;29;20407;-81
2024/02/27 07:01:11;;;;;;;;;;;6.10;99.90;;;6.29;73.58;100441.53;4969541;28;20025;-82
2024/02/27 07:03:39;;;;;;;;;;;6.10;99.90;;;6.30;73.57;100448.50;4950126;28;19930;-81
2024/02/27 07:06:06;;;;;;;;;;;6.20;99.90;;;6.28;73.35;100456.59;4981211;28;19930;-80
2024/02/27 07:08:34;;;;;;;;;;;6.20;99.90;;;6.21;73.56;100455.72;4966012;28;19933;-82
2024/02/27 07:11:01;;;;;;;;;;;6.10;99.90;;;6.21;74.00;100446.94;4928207;29;20316;-85
2024/02/27 07:13:29;;;;;;;;;;;6.10;99.90;;;6.33;73.98;100453.41;4914436;29;19927;-85
2024/02/27 07:15:57;;;;;;;;;;;6.20;99.90;;;6.41;73.68;100456.78;4946009;29;19966;-85
2024/02/27 07:18:24;;;;;;;;;;;6.40;99.90;;;6.41;73.16;100451.50;4937491;29;19934;-85
2024/02/27 07:20:54;;;;;;;;;;;6.30;99.90;;;6.35;72.83;100457.53;4919073;29;19926;-83
2024/02/27 07:23:22;;;;;;;;;;;6.30;99.90;;;6.29;73.06;100458.25;4962055;29;19926;-84
2024/02/27 07:25:49;;;;;;;;;;;6.20;99.90;;;6.28;72.94;100459.25;4962544;28;19933;-83
2024/02/27 07:28:16;;;;;;;;;;;6.20;99.90;;;6.27;73.10;100467.41;4945496;29;20026;-83
2024/02/27 07:30:48;;;;;;;;;;;6.20;99.90;;;6.19;73.00;100465.66;4961284;29;19927;-84
2024/02/27 07:33:16;;;;;;;;;;;6.20;99.90;;;6.10;73.60;100467.59;4961787;29;19978;-83
2024/02/27 07:35:43;;;;;;;;;;;6.00;99.90;;;6.06;73.36;100468.94;4962664;28;20044;-82
2024/02/27 07:38:11;;;;;;;;;;;6.00;99.90;;;6.11;73.62;100471.88;4964590;28;19934;-82
2024/02/27 07:40:38;;;;;;;;;;;6.00;99.90;;;6.10;73.29;100485.25;4946603;29;19934;-82
2024/02/27 07:43:05;;;;;;;;;;;6.00;99.90;;;6.02;73.69;100472.94;4933310;29;19950;-82
2024/02/27 07:45:33;;;;;;;;;;;6.00;99.90;;;6.11;73.92;100474.50;4955986;29;19927;-82
2024/02/27 07:48:00;;;;;;;;;;;6.00;99.90;;;6.15;73.42;100469.69;4942597;29;19926;-82
2024/02/27 07:50:29;;;;;;;;;;;6.10;99.90;;;6.13;73.47;100469.84;4963881;28;19981;-81
2024/02/27 07:52:58;;;;;;;;;;;6.10;99.90;;;6.10;73.46;100480.81;4927772;29;19927;-82
2024/02/27 07:55:26;;;;;;;;;;;6.10;99.90;;;6.07;73.42;100481.16;4952326;29;20355;-82
2024/02/27 07:57:53;;;;;;;;;;;6.00;99.90;;;6.09;73.34;100489.75;4951563;28;19931;-82
2024/02/27 08:00:21;;;;;;;;;;;6.10;99.90;;;6.11;73.25;100490.41;4941627;29;19927;-85
2024/02/27 08:02:51;;;;;;;;;;;6.10;99.90;;;6.10;73.29;100488.75;4961222;28;19954;-82
2024/02/27 08:05:20;;;;;;;;;;;6.10;99.90;;;6.08;73.42;100495.22;4937232;29;20013;-82
2024/02/27 08:07:49;;;;;;;;;;;6.00;99.90;;;6.10;73.22;100499.34;4963067;29;19930;-82
2024/02/27 08:10:16;;;;;;;;;;;6.00;99.90;;;6.13;73.36;100504.28;4947864;29;19999;-82
2024/02/27 08:12:44;;;;;;;;;;;6.00;99.90;;;6.06;73.13;100510.47;4943766;29;19954;-82
2024/02/27 08:15:11;;;;;;;;;;;6.00;99.90;;;6.00;73.33;100506.72;4943540;29;20025;-82
2024/02/27 08:17:39;;;;;;;;;;;5.90;99.90;;;6.07;73.22;100512.94;4949972;29;19994;-82
2024/02/27 08:20:08;;;;;;;;;;;6.00;99.90;;;6.02;72.96;100515.31;4961942;28;19926;-82
2024/02/27 08:22:35;;;;;;;;;;;6.00;99.90;;;6.02;73.35;100514.50;4936227;29;19927;-82
2024/02/27 08:25:05;;;;;;;;;;;5.90;99.90;;;5.97;73.01;100536.22;4911769;29;19926;-82
2024/02/27 08:27:32;;;;;;;;;;;6.00;99.90;;;5.98;73.28;100540.50;4944273;29;19934;-82
2024/02/27 08:30:00;;;;;;;;;;;6.00;99.90;;;6.05;73.31;100549.38;4942442;29;20482;-82
2024/02/27 08:32:27;;;;;;;;;;;6.00;99.90;;;6.15;73.44;100549.13;4929660;29;19927;-82
2024/02/27 08:34:54;;;;;;;;;;;6.10;99.90;;;6.16;72.74;100546.28;4931762;29;20388;-82
2024/02/27 08:37:23;;;;;;;;;;;6.10;99.90;;;6.14;72.98;100545.63;4934232;29;19927;-82
2024/02/27 08:39:50;;;;;;;;;;;6.10;99.90;;;6.23;73.16;100556.16;4941128;29;19997;-82
2024/02/27 08:42:19;;;;;;;;;;;6.10;99.90;;;6.32;73.21;100560.34;4944104;29;20426;-82
2024/02/27 08:44:46;;;;;;;;;;;6.20;99.90;;;6.31;72.86;100556.06;4957229;28;20419;-82
2024/02/27 08:47:14;;;;;;;;;;;6.20;99.90;;;6.24;72.52;100557.78;4956339;29;20343;-83
2024/02/27 08:49:42;;;;;;;;;;;6.20;99.90;;;6.12;72.38;100550.28;4949737;28;19993;-83
2024/02/27 08:52:09;;;;;;;;;;;6.10;99.90;;;6.09;72.69;100561.22;4944273;29;19993;-83
2024/02/27 08:54:37;;;;;;;;;;;6.00;99.90;;;6.14;72.93;100550.91;4932529;29;20029;-83
2024/02/27 08:57:05;;;;;;;;;;;6.00;99.90;;;6.18;72.52;100552.22;4929469;29;19962;-83
2024/02/27 08:59:33;;;;;;;;;;;6.10;99.90;;;6.17;72.68;100560.34;4957799;28;19973;-82
2024/02/27 09:02:01;;;;;;;;;;;6.10;99.90;;;6.18;72.71;100554.84;4959932;28;19977;-83
2024/02/27 09:04:28;;;;;;;;;;;6.10;99.90;;;6.11;72.38;100547.81;4961535;29;19954;-83
2024/02/27 09:06:55;;;;;;;;;;;6.00;99.90;;;6.16;72.43;100548.94;4953150;29;20360;-83
2024/02/27 09:09:22;;;;;;;;;;;6.10;99.90;;;6.18;72.44;100546.09;4927481;29;19934;-84
2024/02/27 09:11:53;;;;;;;;;;;6.10;99.90;;;6.15;72.30;100546.47;4944386;29;20339;-83
2024/02/27 09:14:22;;;;;;;;;;;6.10;99.90;;;6.25;72.71;100547.03;4942670;29;20307;-83
2024/02/27 09:16:51;;;;;;;;;;;6.10;99.90;;;6.29;72.35;100542.16;4942322;29;19927;-83
2024/02/27 09:19:19;;;;;;;;;;;6.20;99.90;;;6.30;72.13;100549.97;4942949;29;19953;-83
2024/02/27 09:21:47;;;;;;;;;;;6.30;99.90;;;6.26;71.71;100553.97;4956557;29;19933;-83
2024/02/27 09:24:14;;;;;;;;;;;6.20;99.90;;;6.31;72.14;100548.13;4960528;28;19957;-83
2024/02/27 09:26:41;;;;;;;;;;;6.20;99.90;;;6.31;71.84;100542.84;4960576;28;19927;-83
2024/02/27 09:29:10;;;;;;;;;;;6.30;99.90;;;6.22;71.66;100541.25;4959337;28;19938;-83
2024/02/27 09:31:37;;;;;;;;;;;6.20;99.90;;;6.22;71.44;100536.78;4949530;28;19950;-83
2024/02/27 09:34:06;;;;;;;;;;;6.10;99.90;;;6.25;72.04;100543.56;4924451;29;19978;-83
2024/02/27 09:36:33;;;;;;;;;;;6.20;99.90;;;6.32;72.07;100547.94;4941302;29;19934;-83
2024/02/27 09:39:03;;;;;;;;;;;6.30;99.90;;;6.34;71.65;100553.03;4939591;29;19990;-81
2024/02/27 09:41:42;;;;;;;;;;;6.30;99.90;;;6.36;71.91;100551.88;4959901;29;19933;-83
2024/02/27 09:44:10;;;;;;;;;;;6.30;99.90;;;6.28;71.69;100549.28;4961076;29;19927;-83
2024/02/27 09:46:41;;;;;;;;;;;6.20;99.90;;;6.35;71.80;100554.72;4948291;28;19933;-83
2024/02/27 09:49:12;;;;;;;;;;;6.30;99.90;;;6.40;71.86;100570.88;4939966;29;19938;-83
2024/02/27 09:51:40;;;;;;;;;;;6.30;99.90;;;6.38;71.42;100573.69;4939733;29;19931;-83
2024/02/27 09:54:08;;;;;;;;;;;6.30;99.90;;;6.40;71.58;100579.66;4952318;29;20463;-84
2024/02/27 09:56:36;;;;;;;;;;;6.30;99.90;;;6.39;71.28;100590.41;4959908;28;20025;-83
2024/02/27 09:59:05;;;;;;;;;;;6.30;99.90;;;6.37;71.59;100580.00;4942889;29;19970;-84
2024/02/27 10:01:36;;;;;;;;;;;6.30;99.90;;;6.38;71.17;100583.47;4960144;28;19927;-84
2024/02/27 10:04:04;;;;;;;;;;;6.30;99.90;;;6.41;71.22;100583.94;4943297;29;20395;-83
2024/02/27 10:06:34;;;;;;;;;;;6.30;99.90;;;6.38;70.58;100602.00;4943365;29;19982;-83
2024/02/27 10:09:03;;;;;;;;;;;6.30;99.90;;;6.26;71.15;100606.13;4959855;28;19927;-86
2024/02/27 10:11:30;;;;;;;;;;;6.20;99.90;;;6.34;71.55;100606.00;4924104;29;19970;-83
2024/02/27 10:13:59;;;;;;;;;;;6.20;99.90;;;6.35;71.12;100607.69;4945293;29;19926;-83
2024/02/27 10:16:27;;;;;;;;;;;6.30;99.90;;;6.34;71.26;100609.47;4943075;29;19927;-83
2024/02/27 10:18:54;;;;;;;;;;;6.30;99.90;;;6.37;71.40;100617.09;4960850;28;19930;-83
2024/02/27 10:21:22;;;;;;;;;;;6.30;99.90;;;6.39;70.29;100616.91;4942439;29;19933;-83
2024/02/27 10:23:52;;;;;;;;;;;6.30;99.90;;;6.36;70.42;100622.56;4942328;29;19973;-83
2024/02/27 10:26:20;;;;;;;;;;;6.20;99.90;;;6.36;69.96;100623.38;4961179;28;19933;-83
2024/02/27 10:28:48;;;;;;;;;;;6.30;99.90;;;6.39;70.54;100622.19;4946904;29;20392;-83
2024/02/27 10:31:15;;;;;;;;;;;6.30;99.90;;;6.39;70.09;100632.78;4963434;29;20020;-83
2024/02/27 10:33:43;;;;;;;;;;;6.30;99.90;;;6.31;69.95;100646.13;4962784;28;19933;-83
2024/02/27 10:36:10;;;;;;;;;;;6.20;99.90;;;6.29;69.97;100637.50;4946477;29;19927;-83
2024/02/27 10:38:38;;;;;;;;;;;6.20;99.90;;;6.35;70.43;100642.13;4946102;29;19966;-83
2024/02/27 10:41:07;;;;;;;;;;;6.30;99.90;;;6.43;70.53;100639.38;4946113;29;19926;-83
2024/02/27 10:43:34;;;;;;;;;;;6.30;99.90;;;6.44;70.28;100644.53;4961795;28;19934;-83
2024/02/27 10:46:02;;;;;;;;;;;6.40;99.90;;;6.50;70.47;100644.81;4971910;28;19933;-83
2024/02/27 10:48:29;;;;;;;;;;;6.40;99.90;;;6.44;69.08;100641.03;4976704;28;19968;-84
2024/02/27 10:50:57;;;;;;;;;;;6.40;99.90;;;6.48;69.72;100631.72;4961231;29;20331;-83
2024/02/27 10:53:25;;;;;;;;;;;6.40;99.90;;;6.59;70.04;100633.13;4944262;29;19957;-81
2024/02/27 10:55:54;;;;;;;;;;;6.50;99.90;;;6.54;68.58;100624.88;4944759;29;20017;-81
2024/02/27 10:58:25;;;;;;;;;;;6.40;99.90;;;6.51;69.66;100623.41;4943877;29;19949;-81
2024/02/27 11:00:53;;;;;;;;;;;6.40;99.90;;;6.54;69.73;100614.25;4961743;29;19931;-82
2024/02/27 11:03:22;;;;;;;;;;;6.50;99.90;;;6.61;69.81;100621.31;4960543;29;19927;-82
2024/02/27 11:05:50;;;;;;;;;;;6.50;99.90;;;6.58;69.29;100615.56;4961305;29;19981;-81
2024/02/27 11:08:18;;;;;;;;;;;6.50;99.90;;;6.64;69.44;100617.50;4961408;29;19926;-81
2024/02/27 11:10:47;;;;;;;;;;;6.60;99.90;;;6.70;69.82;100620.22;4943728;29;20300;-82
2024/02/27 11:13:17;;;;;;;;;;;6.60;99.90;;;6.64;69.20;100620.16;4943542;29;19927;-81
2024/02/27 11:15:47;;;;;;;;;;;6.60;99.90;;;6.70;69.66;100617.59;4944223;29;19926;-83
2024/02/27 11:18:16;;;;;;;;;;;6.60;99.90;;;6.74;69.56;100610.09;4928883;29;19949;-84
2024/02/27 11:20:44;;;;;;;;;;;6.70;99.90;;;6.76;69.51;100609.91;4944554;29;19927;-84
2024/02/27 11:23:12;;;;;;;;;;;6.70;99.90;;;6.68;68.78;100601.03;4944965;29;19927;-85
2024/02/27 11:25:39;;;;;;;;;;;6.60;99.90;;;6.61;68.98;100597.47;4928946;29;20431;-84
2024/02/27 11:28:07;;;;;;;;;;;6.50;99.90;;;6.63;69.16;100591.97;4962597;28;19926;-83
2024/02/27 11:30:36;;;;;;;;;;;6.60;99.90;;;6.76;69.82;100599.31;4944305;29;19994;-84